Time;durP1;ratioP1;P1;durP2;ratioP2;P2;SDS_P1;SDS_P2;PMS_P1;PMS_P2;Temp;Humidity;BMP_temperature;BMP_pressure;BME280_temperature;BME280_humidity;BME280_pressure;Samples;Min_cycle;Max_cycle;Signal;HPM_P1;HPM_P2
2024/03/18 00:00:46;;;;;;;2.78;1.85;;;;;;;;;;4995911;28;20068;-53
2024/03/18 00:03:39;;;;;;;5.40;1.40;;;;;;;;;;4995070;28;20430;-56
2024/03/18 00:06:25;;;;;;;2.38;1.33;;;;;;;;;;4994323;28;20061;-51
2024/03/18 00:09:32;;;;;;;2.53;1.48;;;;;;;;;;4993587;28;20058;-49
2024/03/18 00:12:18;;;;;;;;;;;;;;;;;;4993147;28;20054;-46
2024/03/18 00:15:12;;;;;;;3.88;1.50;;;;;;;;;;4997841;28;19926;-50
2024/03/18 00:17:58;;;;;;;2.45;1.40;;;;;;;;;;4995280;28;20514;-48
2024/03/18 00:20:30;;;;;;;3.42;1.40;;;;;;;;;;4993229;28;20054;-49
2024/03/18 00:22:58;;;;;;;5.10;1.58;;;;;;;;;;4994683;28;20080;-46
2024/03/18 00:25:24;;;;;;;1.95;1.35;;;;;;;;;;4995026;28;20062;-67
2024/03/18 00:27:56;;;;;;;8.65;1.80;;;;;;;;;;5008485;28;20062;-67
2024/03/18 00:30:23;;;;;;;1.88;1.30;;;;;;;;;;4993123;28;20061;-67
2024/03/18 00:32:49;;;;;;;2.80;1.60;;;;;;;;;;4993346;28;20116;-68
2024/03/18 00:35:21;;;;;;;2.65;1.48;;;;;;;;;;4992251;28;20046;-67
2024/03/18 00:38:07;;;;;;;6.18;1.70;;;;;;;;;;4992424;28;20062;-56
2024/03/18 00:43:45;;;;;;;2.17;1.10;;;;;;;;;;4996306;28;20057;-52
2024/03/18 00:46:38;;;;;;;4.75;1.52;;;;;;;;;;4992215;28;20058;-56
2024/03/18 00:49:25;;;;;;;2.92;1.40;;;;;;;;;;4995123;28;20058;-55
2024/03/18 00:52:17;;;;;;;2.22;1.20;;;;;;;;;;5010052;28;20534;-60
2024/03/18 00:55:04;;;;;;;2.47;1.45;;;;;;;;;;4991474;28;20054;-58
2024/03/18 00:57:57;;;;;;;4.93;1.63;;;;;;;;;;4998152;28;20454;-56
2024/03/18 01:00:50;;;;;;;4.38;1.33;;;;;;;;;;4995897;28;20062;-57
2024/03/18 01:03:42;;;;;;;2.17;1.23;;;;;;;;;;5002533;28;20066;-57
2024/03/18 01:06:36;;;;;;;2.60;1.70;;;;;;;;;;4996132;28;20073;-46
2024/03/18 01:09:37;;;;;;;5.55;1.27;;;;;;;;;;4997709;28;20107;-50
2024/03/18 01:12:21;;;;;;;7.38;1.50;;;;;;;;;;4991306;28;20054;-47
2024/03/18 01:15:15;;;;;;;2.72;1.30;;;;;;;;;;5003787;28;20424;-47
2024/03/18 01:18:01;;;;;;;5.03;1.38;;;;;;;;;;4993678;28;20120;-46
2024/03/18 01:20:55;;;;;;;1.45;1.02;;;;;;;;;;4995041;28;20065;-65
2024/03/18 01:23:41;;;;;;;6.13;1.55;;;;;;;;;;4996290;28;20419;-67
2024/03/18 01:26:33;;;;;;;3.42;1.48;;;;;;;;;;5007471;28;20065;-65
2024/03/18 01:29:21;;;;;;;1.77;1.25;;;;;;;;;;4993911;28;20459;-66
2024/03/18 01:32:12;;;;;;;3.85;1.40;;;;;;;;;;4991881;28;20069;-63
2024/03/18 01:34:59;;;;;;;3.28;1.40;;;;;;;;;;4992622;28;20062;-46
2024/03/18 01:37:52;;;;;;;2.10;1.10;;;;;;;;;;5012602;28;20068;-48
2024/03/18 01:40:38;;;;;;;1.13;0.82;;;;;;;;;;4994873;28;20053;-52
2024/03/18 01:43:30;;;;;;;5.32;2.03;;;;;;;;;;5010846;28;20050;-50
2024/03/18 01:46:17;;;;;;;3.35;1.02;;;;;;;;;;4994080;28;20511;-51
2024/03/18 01:49:10;;;;;;;3.58;0.90;;;;;;;;;;5010484;28;20066;-59
2024/03/18 01:51:56;;;;;;;4.18;1.40;;;;;;;;;;4995225;28;20435;-59
2024/03/18 01:54:48;;;;;;;3.53;1.30;;;;;;;;;;4997407;28;20062;-59
2024/03/18 01:57:35;;;;;;;2.35;1.15;;;;;;;;;;4996544;28;20625;-59
2024/03/18 02:00:35;;;;;;;1.85;1.10;;;;;;;;;;4998169;28;20065;-66
2024/03/18 02:03:23;;;;;;;1.92;1.17;;;;;;;;;;4995091;28;20058;-58
2024/03/18 02:06:12;;;;;;;3.60;1.27;;;;;;;;;;4992496;28;20046;-59
2024/03/18 02:09:06;;;;;;;5.47;1.40;;;;;;;;;;4994507;28;20136;-59
2024/03/18 02:11:59;;;;;;;2.13;1.00;;;;;;;;;;4998305;28;20108;-59
2024/03/18 02:14:50;;;;;;;1.23;0.90;;;;;;;;;;4997503;28;20523;-59
2024/03/18 02:17:38;;;;;;;1.58;0.82;;;;;;;;;;5010021;28;20064;-62
2024/03/18 02:20:24;;;;;;;2.45;1.05;;;;;;;;;;4998583;28;20120;-62
2024/03/18 02:23:17;;;;;;;8.55;1.38;;;;;;;;;;4996358;28;20061;-63
2024/03/18 02:26:04;;;;;;;3.20;0.70;;;;;;;;;;4994827;28;20171;-62
2024/03/18 02:28:56;;;;;;;2.20;1.10;;;;;;;;;;4995259;28;20516;-54
2024/03/18 02:31:42;;;;;;;1.23;1.10;;;;;;;;;;4998005;28;20061;-46
2024/03/18 02:34:35;;;;;;;8.18;1.25;;;;;;;;;;4997154;28;20058;-48
2024/03/18 02:37:21;;;;;;;2.00;1.02;;;;;;;;;;4999952;28;20431;-50
2024/03/18 02:40:14;;;;;;;7.95;1.20;;;;;;;;;;4997611;28;20431;-50
2024/03/18 02:43:01;;;;;;;2.40;1.17;;;;;;;;;;4997854;28;20054;-53
2024/03/18 02:45:53;;;;;;;0.77;0.70;;;;;;;;;;4997192;28;20058;-56
2024/03/18 02:48:40;;;;;;;3.08;1.20;;;;;;;;;;4994948;28;20061;-58
2024/03/18 02:51:33;;;;;;;1.38;1.00;;;;;;;;;;4997390;28;20124;-59
2024/03/18 02:54:19;;;;;;;1.70;1.00;;;;;;;;;;4996642;28;20050;-57
2024/03/18 02:57:11;;;;;;;4.32;1.02;;;;;;;;;;4994585;28;21005;-66
2024/03/18 02:59:59;;;;;;;3.97;0.85;;;;;;;;;;4997973;28;20061;-56
2024/03/18 03:02:51;;;;;;;15.23;1.25;;;;;;;;;;4996594;28;20065;-57
2024/03/18 03:05:37;;;;;;;2.33;1.02;;;;;;;;;;4993272;28;20565;-60
2024/03/18 03:08:36;;;;;;;2.95;1.33;;;;;;;;;;4997564;28;20053;-57
2024/03/18 03:11:22;;;;;;;4.45;0.90;;;;;;;;;;4992856;28;20463;-59
2024/03/18 03:14:15;;;;;;;2.33;0.68;;;;;;;;;;4995700;28;20548;-59
2024/03/18 03:17:02;;;;;;;5.90;1.27;;;;;;;;;;4994597;28;20262;-59
2024/03/18 03:19:54;;;;;;;4.85;1.88;;;;;;;;;;4993192;28;20045;-59
2024/03/18 03:22:40;;;;;;;2.70;0.70;;;;;;;;;;4995886;28;20116;-58
2024/03/18 03:25:33;;;;;;;4.22;1.30;;;;;;;;;;4996618;28;20092;-65
2024/03/18 03:28:20;;;;;;;1.50;0.90;;;;;;;;;;4996763;28;20054;-52
2024/03/18 03:31:15;;;;;;;2.50;1.15;;;;;;;;;;5013070;28;20045;-51
2024/03/18 03:34:02;;;;;;;5.95;1.20;;;;;;;;;;4997480;28;20069;-53
2024/03/18 03:36:55;;;;;;;3.40;0.80;;;;;;;;;;4993961;28;20108;-49
2024/03/18 03:39:41;;;;;;;3.22;1.13;;;;;;;;;;4997305;28;20058;-48
2024/03/18 03:42:33;;;;;;;2.50;0.93;;;;;;;;;;4991738;28;20073;-59
2024/03/18 03:45:24;;;;;;;2.97;0.98;;;;;;;;;;4994018;28;20134;-59
2024/03/18 03:48:12;;;;;;;2.47;1.05;;;;;;;;;;4988340;28;20088;-59
2024/03/18 03:50:59;;;;;;;2.47;1.00;;;;;;;;;;4993818;28;20128;-59
2024/03/18 03:53:51;;;;;;;2.75;0.98;;;;;;;;;;4997241;28;20050;-63
2024/03/18 03:56:38;;;;;;;7.65;1.00;;;;;;;;;;4992821;28;20147;-62
2024/03/18 03:59:30;;;;;;;1.77;0.88;;;;;;;;;;4996391;28;20065;-63
2024/03/18 04:02:17;;;;;;;4.32;1.20;;;;;;;;;;4990748;28;20504;-63
2024/03/18 04:05:10;;;;;;;2.88;1.05;;;;;;;;;;4990498;28;20113;-63
2024/03/18 04:08:02;;;;;;;1.15;0.90;;;;;;;;;;4996579;28;20065;-62
2024/03/18 04:11:02;;;;;;;3.78;1.10;;;;;;;;;;4998616;28;20058;-60
2024/03/18 04:14:01;;;;;;;1.42;0.90;;;;;;;;;;5015287;28;20069;-59
2024/03/18 04:16:54;;;;;;;2.92;0.80;;;;;;;;;;4999721;28;20060;-57
2024/03/18 04:19:41;;;;;;;2.72;0.85;;;;;;;;;;4999423;28;20049;-56
2024/03/18 04:22:34;;;;;;;3.20;1.10;;;;;;;;;;5002328;28;20380;-54
2024/03/18 04:25:21;;;;;;;4.88;1.02;;;;;;;;;;5001047;28;20065;-51
2024/03/18 04:28:13;;;;;;;1.75;0.98;;;;;;;;;;4995057;28;20058;-49
2024/03/18 04:31:02;;;;;;;1.83;0.88;;;;;;;;;;4999241;28;20061;-45
2024/03/18 04:33:53;;;;;;;7.28;1.30;;;;;;;;;;5010778;28;20057;-46
2024/03/18 04:36:39;;;;;;;3.15;1.17;;;;;;;;;;4998100;28;20061;-47
2024/03/18 04:39:31;;;;;;;0.73;0.60;;;;;;;;;;4999959;28;20061;-56
2024/03/18 04:42:18;;;;;;;5.85;1.20;;;;;;;;;;4995880;28;20064;-54
2024/03/18 04:45:11;;;;;;;2.92;1.08;;;;;;;;;;4997996;28;20065;-55
2024/03/18 04:47:57;;;;;;;1.13;0.60;;;;;;;;;;4993840;28;20050;-54
2024/03/18 04:50:49;;;;;;;4.00;0.82;;;;;;;;;;5001000;28;20053;-59
2024/03/18 04:53:36;;;;;;;4.55;1.45;;;;;;;;;;4995266;28;20065;-62
2024/03/18 04:56:31;;;;;;;3.13;1.10;;;;;;;;;;5006684;28;20404;-62
2024/03/18 04:59:15;;;;;;;4.20;1.00;;;;;;;;;;4995211;28;20050;-62
2024/03/18 05:02:07;;;;;;;4.32;0.95;;;;;;;;;;4992204;28;20127;-62
2024/03/18 05:04:54;;;;;;;3.25;1.10;;;;;;;;;;4999185;28;20057;-62
2024/03/18 05:07:59;;;;;;;2.78;1.08;;;;;;;;;;5002254;28;20499;-64
2024/03/18 05:10:53;;;;;;;3.45;0.73;;;;;;;;;;4982496;28;20080;-47
2024/03/18 05:13:46;;;;;;;3.28;0.90;;;;;;;;;;4978746;28;20053;-51
2024/03/18 05:16:37;;;;;;;2.88;1.00;;;;;;;;;;4981539;28;20050;-48
2024/03/18 05:19:24;;;;;;;2.38;0.73;;;;;;;;;;4978145;28;20054;-53
2024/03/18 05:22:11;;;;;;;3.55;1.13;;;;;;;;;;4976100;28;20949;-62
2024/03/18 05:25:06;;;;;;;2.80;0.80;;;;;;;;;;4979881;28;20518;-61
2024/03/18 05:27:50;;;;;;;4.35;1.30;;;;;;;;;;4975259;28;20057;-62
2024/03/18 05:30:42;;;;;;;4.43;0.70;;;;;;;;;;4973732;28;20069;-62
2024/03/18 05:33:29;;;;;;;3.90;0.80;;;;;;;;;;4972417;28;20054;-62
2024/03/18 05:36:21;;;;;;;2.55;0.90;;;;;;;;;;4976736;28;20065;-61
2024/03/18 05:39:11;;;;;;;6.30;0.95;;;;;;;;;;4975947;28;20061;-62
2024/03/18 05:42:04;;;;;;;2.88;0.80;;;;;;;;;;4972697;28;20058;-61
2024/03/18 05:44:50;;;;;;;2.03;1.05;;;;;;;;;;4977758;28;20116;-62
2024/03/18 05:47:43;;;;;;;1.95;0.85;;;;;;;;;;4976548;28;20508;-55
2024/03/18 05:50:29;;;;;;;3.30;1.20;;;;;;;;;;4972668;28;20339;-55
2024/03/18 05:53:28;;;;;;;1.25;0.77;;;;;;;;;;4996093;28;20107;-54
2024/03/18 05:56:14;;;;;;;4.82;0.90;;;;;;;;;;4981038;28;20054;-53
2024/03/18 05:59:10;;;;;;;4.57;1.30;;;;;;;;;;4984019;28;20599;-54
2024/03/18 06:01:53;;;;;;;5.35;1.17;;;;;;;;;;4966624;28;20066;-52
2024/03/18 06:04:47;;;;;;;0.82;0.63;;;;;;;;;;4987995;28;20054;-63
2024/03/18 06:07:33;;;;;;;0.68;0.60;;;;;;;;;;4980602;28;20137;-54
2024/03/18 06:10:38;;;;;;;1.42;0.88;;;;;;;;;;4996644;28;20831;-60
2024/03/18 06:13:25;;;;;;;1.20;0.70;;;;;;;;;;4994947;28;20054;-60
2024/03/18 06:16:18;;;;;;;2.53;0.98;;;;;;;;;;4999898;28;20062;-60
2024/03/18 06:19:04;;;;;;;1.20;0.73;;;;;;;;;;4996557;28;20051;-60
2024/03/18 06:21:59;;;;;;;0.77;0.60;;;;;;;;;;4999252;28;20073;-60
2024/03/18 06:27:35;;;;;;;9.52;1.27;;;;;;;;;;4997873;28;20058;-48
2024/03/18 06:30:28;;;;;;;2.70;1.30;;;;;;;;;;4998234;28;20069;-48
2024/03/18 06:33:15;;;;;;;4.20;0.93;;;;;;;;;;4995872;28;20582;-46
2024/03/18 06:36:11;;;;;;;3.80;1.13;;;;;;;;;;4998423;28;20248;-53
2024/03/18 06:38:57;;;;;;;3.08;1.10;;;;;;;;;;4994187;28;20058;-46
2024/03/18 06:41:50;;;;;;;3.53;1.08;;;;;;;;;;4995777;28;20155;-46
2024/03/18 06:44:42;;;;;;;0.60;0.60;;;;;;;;;;4997295;28;20684;-52
2024/03/18 06:47:30;;;;;;;1.80;0.95;;;;;;;;;;5001106;28;20062;-51
2024/03/18 06:50:16;;;;;;;4.80;1.05;;;;;;;;;;4999418;28;20519;-51
2024/03/18 06:53:08;;;;;;;4.10;1.15;;;;;;;;;;5000091;28;20058;-55
2024/03/18 06:55:55;;;;;;;3.75;1.08;;;;;;;;;;4998938;28;20046;-51
2024/03/18 06:58:48;;;;;;;5.53;1.30;;;;;;;;;;5003013;28;20050;-48
2024/03/18 07:01:34;;;;;;;1.58;0.85;;;;;;;;;;4999659;28;20084;-49
2024/03/18 07:04:26;;;;;;;1.90;0.70;;;;;;;;;;5000108;28;20471;-63
2024/03/18 07:07:14;;;;;;;4.05;1.33;;;;;;;;;;4997191;28;20050;-56
2024/03/18 07:10:12;;;;;;;1.65;0.77;;;;;;;;;;4996435;28;20062;-57
2024/03/18 07:12:59;;;;;;;7.70;1.55;;;;;;;;;;4994446;28;20054;-53
2024/03/18 07:15:54;;;;;;;3.95;1.30;;;;;;;;;;5011472;28;20050;-56
2024/03/18 07:18:38;;;;;;;0.93;0.60;;;;;;;;;;4996022;28;20061;-56
2024/03/18 07:21:31;;;;;;;3.30;0.88;;;;;;;;;;4999416;28;20077;-67
2024/03/18 07:24:17;;;;;;;6.05;1.38;;;;;;;;;;4995321;28;20054;-66
2024/03/18 07:27:09;;;;;;;4.50;1.33;;;;;;;;;;4995798;28;20054;-66
2024/03/18 07:29:56;;;;;;;7.63;1.02;;;;;;;;;;4994505;28;20423;-65
2024/03/18 07:32:48;;;;;;;5.47;0.93;;;;;;;;;;4995123;28;20112;-61
2024/03/18 07:35:35;;;;;;;1.85;0.95;;;;;;;;;;4996146;28;20068;-47
2024/03/18 07:38:30;;;;;;;3.60;1.30;;;;;;;;;;4998456;28;20128;-47
2024/03/18 07:41:14;;;;;;;4.70;0.90;;;;;;;;;;4999198;28;20641;-49
2024/03/18 07:44:07;;;;;;;13.52;1.73;;;;;;;;;;5000072;28;20049;-53
2024/03/18 07:47:00;;;;;;;2.55;1.17;;;;;;;;;;4994567;28;20054;-50
2024/03/18 07:49:46;;;;;;;1.75;0.85;;;;;;;;;;4998191;28;20056;-56
2024/03/18 07:52:38;;;;;;;2.08;1.10;;;;;;;;;;5000369;28;20058;-56
2024/03/18 07:55:25;;;;;;;3.15;1.33;;;;;;;;;;4993286;28;20495;-54
2024/03/18 07:58:18;;;;;;;2.60;1.20;;;;;;;;;;4998430;28;20059;-58
2024/03/18 08:01:04;;;;;;;2.75;1.17;;;;;;;;;;4996840;28;20061;-61
2024/03/18 08:03:57;;;;;;;1.90;1.00;;;;;;;;;;4995886;28;20066;-55
2024/03/18 08:06:46;;;;;;;1.55;0.75;;;;;;;;;;4993426;28;20056;-58
2024/03/18 08:09:42;;;;;;;5.10;1.33;;;;;;;;;;4992687;28;20543;-55
2024/03/18 08:12:28;;;;;;;3.65;0.88;;;;;;;;;;4998062;28;20057;-57
2024/03/18 08:15:23;;;;;;;1.92;0.70;;;;;;;;;;4995165;28;20050;-58
2024/03/18 08:18:08;;;;;;;7.07;1.45;;;;;;;;;;4995427;28;20061;-56
2024/03/18 08:21:00;;;;;;;2.80;1.02;;;;;;;;;;4996424;28;20058;-55
2024/03/18 08:23:49;;;;;;;4.45;1.10;;;;;;;;;;4994423;28;20423;-57
2024/03/18 08:26:39;;;;;;;2.05;0.70;;;;;;;;;;4996716;28;20058;-53
2024/03/18 08:29:27;;;;;;;5.13;1.30;;;;;;;;;;5000221;28;20072;-50
2024/03/18 08:32:19;;;;;;;5.43;1.60;;;;;;;;;;4995491;28;20061;-48
2024/03/18 08:35:05;;;;;;;4.80;1.23;;;;;;;;;;4999593;28;20120;-49
2024/03/18 08:37:57;;;;;;;1.00;0.77;;;;;;;;;;4998966;28;20054;-50
2024/03/18 08:40:54;;;;;;;3.63;1.23;;;;;;;;;;4998883;28;20504;-50
2024/03/18 08:43:40;;;;;;;1.70;0.90;;;;;;;;;;4994909;28;20563;-49
2024/03/18 08:46:32;;;;;;;0.75;0.40;;;;;;;;;;4998185;28;20053;-55
2024/03/18 08:49:25;;;;;;;7.15;1.48;;;;;;;;;;4990352;28;20073;-55
2024/03/18 08:52:12;;;;;;;3.65;1.10;;;;;;;;;;4995581;28;20505;-56
2024/03/18 08:55:05;;;;;;;3.17;0.75;;;;;;;;;;4994905;28;20530;-57
2024/03/18 08:57:51;;;;;;;2.05;0.93;;;;;;;;;;4997921;28;20146;-57
2024/03/18 09:00:45;;;;;;;2.63;0.98;;;;;;;;;;4994399;28;20112;-58
2024/03/18 09:03:30;;;;;;;3.67;1.25;;;;;;;;;;4994047;28;20069;-55
2024/03/18 09:06:24;;;;;;;4.78;1.27;;;;;;;;;;4995045;28;20054;-58
2024/03/18 09:09:16;;;;;;;3.53;1.20;;;;;;;;;;4994469;28;20803;-57
2024/03/18 09:12:15;;;;;;;3.13;1.13;;;;;;;;;;4990724;28;20062;-57
2024/03/18 09:15:01;;;;;;;5.45;1.25;;;;;;;;;;4991666;28;20277;-53
2024/03/18 09:17:55;;;;;;;5.05;1.25;;;;;;;;;;4993298;28;20408;-50
2024/03/18 09:20:41;;;;;;;3.35;0.93;;;;;;;;;;4998372;28;20116;-54
2024/03/18 09:23:34;;;;;;;5.53;0.93;;;;;;;;;;5001160;28;20073;-53
2024/03/18 09:26:20;;;;;;;0.95;0.68;;;;;;;;;;4999537;28;20428;-63
2024/03/18 09:29:13;;;;;;;2.33;1.08;;;;;;;;;;4996170;28;20046;-54
2024/03/18 09:31:59;;;;;;;3.13;0.77;;;;;;;;;;4999369;28;20065;-50
2024/03/18 09:34:52;;;;;;;3.47;1.23;;;;;;;;;;5012038;28;20049;-52
2024/03/18 09:37:38;;;;;;;3.08;0.80;;;;;;;;;;4998861;28;20113;-49
2024/03/18 09:40:31;;;;;;;1.80;0.63;;;;;;;;;;4998452;28;20054;-49
2024/03/18 09:43:17;;;;;;;5.22;1.02;;;;;;;;;;4999836;28;20066;-49
2024/03/18 09:46:10;;;;;;;4.40;1.17;;;;;;;;;;5001740;28;20117;-50
2024/03/18 09:49:04;;;;;;;2.08;0.60;;;;;;;;;;4998720;28;20058;-49
2024/03/18 09:52:04;;;;;;;3.75;1.10;;;;;;;;;;4998172;28;20054;-49
2024/03/18 09:54:50;;;;;;;2.05;0.80;;;;;;;;;;4996453;28;20054;-56
2024/03/18 09:57:43;;;;;;;5.60;1.48;;;;;;;;;;4998361;28;20066;-61
2024/03/18 10:00:29;;;;;;;4.50;0.55;;;;;;;;;;4999504;28;20505;-60
2024/03/18 10:03:22;;;;;;;3.17;1.00;;;;;;;;;;5013245;28;20066;-58
2024/03/18 10:06:09;;;;;;;1.73;0.80;;;;;;;;;;4998566;28;20061;-60
2024/03/18 10:09:08;;;;;;;5.63;1.20;;;;;;;;;;5000581;28;20058;-61
2024/03/18 10:11:55;;;;;;;2.83;0.88;;;;;;;;;;4987558;28;20088;-53
2024/03/18 10:14:47;;;;;;;2.72;1.00;;;;;;;;;;4982110;28;20062;-49
2024/03/18 10:17:41;;;;;;;6.20;1.10;;;;;;;;;;4986281;28;20054;-50
2024/03/18 10:20:37;;;;;;;5.57;1.02;;;;;;;;;;4985209;28;20490;-52
2024/03/18 10:23:28;;;;;;;8.23;1.50;;;;;;;;;;4982748;28;20504;-61
2024/03/18 10:26:16;;;;;;;2.72;1.20;;;;;;;;;;4981031;28;20062;-62
2024/03/18 10:29:08;;;;;;;4.28;1.17;;;;;;;;;;4999206;28;20050;-62
2024/03/18 10:31:54;;;;;;;2.92;1.15;;;;;;;;;;4981194;28;20476;-62
2024/03/18 10:34:49;;;;;;;2.50;1.00;;;;;;;;;;4983446;28;20432;-62
2024/03/18 10:37:35;;;;;;;3.63;1.40;;;;;;;;;;4978538;28;20549;-62
2024/03/18 10:40:33;;;;;;;2.30;1.25;;;;;;;;;;4983700;28;20063;-58
2024/03/18 10:43:22;;;;;;;2.03;1.10;;;;;;;;;;4982931;28;20062;-58
2024/03/18 10:46:15;;;;;;;10.23;1.45;;;;;;;;;;4982740;28;20066;-55
2024/03/18 10:49:01;;;;;;;2.95;1.48;;;;;;;;;;4979321;28;20093;-57
2024/03/18 10:51:54;;;;;;;1.92;1.15;;;;;;;;;;4979013;28;20665;-67
2024/03/18 10:54:40;;;;;;;3.33;1.20;;;;;;;;;;4983307;28;20058;-47
2024/03/18 10:57:33;;;;;;;6.40;1.77;;;;;;;;;;4999228;28;21364;-49
2024/03/18 11:00:19;;;;;;;3.95;1.27;;;;;;;;;;4982882;28;20061;-54
2024/03/18 11:03:24;;;;;;;6.32;1.20;;;;;;;;;;4984166;28;20061;-53
2024/03/18 11:06:15;;;;;;;6.13;1.48;;;;;;;;;;4981804;28;20050;-50
2024/03/18 11:09:19;;;;;;;3.78;1.40;;;;;;;;;;5000163;28;20419;-52
2024/03/18 11:12:33;;;;;;;6.22;1.60;;;;;;;;;;5003513;28;20058;-54
2024/03/18 11:15:26;;;;;;;4.90;1.30;;;;;;;;;;4996561;28;20474;-56
2024/03/18 11:18:16;;;;;;;2.85;1.38;;;;;;;;;;4997360;28;20045;-56
2024/03/18 11:21:16;;;;;;;3.10;1.10;;;;;;;;;;5000426;28;20500;-52
2024/03/18 11:24:03;;;;;;;3.10;1.13;;;;;;;;;;5003090;28;20061;-55
2024/03/18 11:27:00;;;;;;;8.95;1.50;;;;;;;;;;5002945;28;20088;-48
2024/03/18 11:29:50;;;;;;;3.83;1.02;;;;;;;;;;5004152;28;20056;-52
2024/03/18 11:32:48;;;;;;;4.97;1.40;;;;;;;;;;5004179;28;20065;-50
2024/03/18 11:35:34;;;;;;;3.42;1.65;;;;;;;;;;5004571;28;20077;-48
2024/03/18 11:38:27;;;;;;;6.68;1.50;;;;;;;;;;5000696;28;20054;-64
2024/03/18 11:41:19;;;;;;;6.03;1.30;;;;;;;;;;5002714;28;20057;-64
2024/03/18 11:44:06;;;;;;;8.45;1.95;;;;;;;;;;4997574;28;20052;-65
2024/03/18 11:47:06;;;;;;;3.75;1.30;;;;;;;;;;5002383;28;20601;-57
2024/03/18 11:50:01;;;;;;;2.53;1.38;;;;;;;;;;4995531;28;20057;-54
2024/03/18 11:52:53;;;;;;;6.00;1.73;;;;;;;;;;4996012;28;20050;-55
2024/03/18 11:55:53;;;;;;;2.00;1.17;;;;;;;;;;5002749;28;20151;-53
2024/03/18 11:58:53;;;;;;;4.93;1.48;;;;;;;;;;5000156;28;20059;-49
2024/03/18 12:01:53;;;;;;;4.32;1.40;;;;;;;;;;4998086;28;20054;-51
2024/03/18 12:04:44;;;;;;;3.05;1.42;;;;;;;;;;5014842;28;20052;-50
2024/03/18 12:07:31;;;;;;;3.13;1.30;;;;;;;;;;5003358;28;20057;-49
2024/03/18 12:10:30;;;;;;;2.97;1.35;;;;;;;;;;4998666;28;20470;-48
2024/03/18 12:13:17;;;;;;;1.30;0.70;;;;;;;;;;4993891;28;20417;-49
2024/03/18 12:16:13;;;;;;;5.10;1.55;;;;;;;;;;4996263;28;20515;-53
2024/03/18 12:19:09;;;;;;;3.55;1.40;;;;;;;;;;4994223;28;20530;-57
2024/03/18 12:22:10;;;;;;;5.05;1.70;;;;;;;;;;4997963;28;20112;-59
2024/03/18 12:30:35;;;;;;;1.98;1.30;;;;;;;;;;4998778;28;20069;-56
2024/03/18 12:33:32;;;;;;;4.03;1.55;;;;;;;;;;5013012;28;20076;-50
2024/03/18 12:36:19;;;;;;;4.32;1.50;;;;;;;;;;5000312;28;20453;-48
2024/03/18 12:39:11;;;;;;;3.35;1.33;;;;;;;;;;5000237;28;20061;-47
2024/03/18 12:42:00;;;;;;;2.63;1.23;;;;;;;;;;4997911;28;20058;-51
2024/03/18 12:44:49;;;;;;;3.05;1.73;;;;;;;;;;4999858;28;20062;-46
2024/03/18 12:47:43;;;;;;;2.10;1.23;;;;;;;;;;4996734;28;20054;-66
2024/03/18 12:50:29;;;;;;;3.58;1.40;;;;;;;;;;4995012;28;20069;-66
2024/03/18 12:53:22;;;;;;;4.40;1.48;;;;;;;;;;4996187;28;20065;-67
2024/03/18 12:56:09;;;;;;;2.38;1.52;;;;;;;;;;4993811;28;20066;-66
2024/03/18 12:59:02;;;;;;;3.95;1.42;;;;;;;;;;4998085;28;20566;-67
2024/03/18 13:01:49;;;;;;;5.50;1.58;;;;;;;;;;4994497;28;21033;-53
2024/03/18 13:04:40;;;;;;;2.70;1.58;;;;;;;;;;4993181;28;20054;-51
2024/03/18 13:07:27;;;;;;;2.20;1.30;;;;;;;;;;4994665;28;20065;-53
2024/03/18 13:10:27;;;;;;;3.17;1.48;;;;;;;;;;4993538;28;20057;-47
2024/03/18 13:13:13;;;;;;;2.35;1.35;;;;;;;;;;4994222;28;20054;-50
2024/03/18 13:16:09;;;;;;;2.97;1.63;;;;;;;;;;4996055;28;20055;-51
2024/03/18 13:18:53;;;;;;;4.38;1.98;;;;;;;;;;4992477;28;20061;-52
2024/03/18 13:21:46;;;;;;;4.95;1.48;;;;;;;;;;4996800;28;20532;-49
2024/03/18 13:24:32;;;;;;;1.35;1.15;;;;;;;;;;4996577;28;20062;-52
2024/03/18 13:27:25;;;;;;;2.70;1.67;;;;;;;;;;4997141;28;20066;-51
2024/03/18 13:30:11;;;;;;;4.07;1.50;;;;;;;;;;4996681;28;20128;-52
2024/03/18 13:33:04;;;;;;;3.92;1.50;;;;;;;;;;4995070;28;20073;-51
2024/03/18 13:35:51;;;;;;;2.17;1.05;;;;;;;;;;4993184;28;20463;-50
2024/03/18 13:38:43;;;;;;;2.83;1.40;;;;;;;;;;4998180;28;20121;-54
2024/03/18 13:41:29;;;;;;;3.22;1.35;;;;;;;;;;4994141;28;20058;-61
2024/03/18 13:44:22;;;;;;;2.40;1.48;;;;;;;;;;5007184;28;21065;-54
2024/03/18 13:47:08;;;;;;;3.83;1.60;;;;;;;;;;4993776;28;20069;-52
2024/03/18 13:50:00;;;;;;;2.83;1.67;;;;;;;;;;5009804;28;20058;-55
2024/03/18 13:52:54;;;;;;;4.10;1.50;;;;;;;;;;5010091;28;20058;-57
2024/03/18 13:55:47;;;;;;;2.35;1.60;;;;;;;;;;4994724;28;20061;-55
2024/03/18 13:58:40;;;;;;;3.47;1.85;;;;;;;;;;4996373;28;20524;-61
2024/03/18 14:01:26;;;;;;;5.43;1.77;;;;;;;;;;4991212;28;20053;-61
2024/03/18 14:04:18;;;;;;;2.67;1.42;;;;;;;;;;4995829;28;20137;-61
2024/03/18 14:07:05;;;;;;;4.93;1.63;;;;;;;;;;4996993;28;20120;-61
2024/03/18 14:10:11;;;;;;;5.35;1.90;;;;;;;;;;4999532;28;20061;-55
2024/03/18 14:13:06;;;;;;;6.88;2.00;;;;;;;;;;4998948;28;20894;-60
2024/03/18 14:15:57;;;;;;;2.58;1.50;;;;;;;;;;5011943;28;20646;-60
2024/03/18 14:18:46;;;;;;;2.63;1.45;;;;;;;;;;4997785;28;20532;-59
2024/03/18 14:21:37;;;;;;;3.75;2.00;;;;;;;;;;5015272;28;20057;-60
2024/03/18 14:24:23;;;;;;;2.58;1.52;;;;;;;;;;4997906;28;20062;-59
2024/03/18 14:27:16;;;;;;;2.80;1.33;;;;;;;;;;4999158;28;20054;-64
2024/03/18 14:30:03;;;;;;;6.90;1.98;;;;;;;;;;4998835;28;20695;-66
2024/03/18 14:32:55;;;;;;;6.95;1.60;;;;;;;;;;5003035;28;20061;-64
2024/03/18 14:35:41;;;;;;;2.80;1.52;;;;;;;;;;4998916;28;20519;-65
2024/03/18 14:38:34;;;;;;;3.85;1.52;;;;;;;;;;4998502;28;20555;-55
2024/03/18 14:41:20;;;;;;;2.60;1.60;;;;;;;;;;4997802;28;20065;-64
2024/03/18 14:44:13;;;;;;;4.78;1.70;;;;;;;;;;4997831;28;20424;-64
2024/03/18 14:47:01;;;;;;;4.57;1.60;;;;;;;;;;4994117;28;20526;-64
2024/03/18 14:49:54;;;;;;;6.30;1.48;;;;;;;;;;4993870;28;20054;-64
2024/03/18 14:52:44;;;;;;;4.38;1.98;;;;;;;;;;5000743;28;20050;-64
2024/03/18 14:55:44;;;;;;;9.82;1.80;;;;;;;;;;5014614;28;20046;-52
2024/03/18 14:58:38;;;;;;;6.13;1.85;;;;;;;;;;4997880;28;20068;-51
2024/03/18 15:01:23;;;;;;;2.78;1.70;;;;;;;;;;4995777;28;20054;-49
2024/03/18 15:04:16;;;;;;;5.18;1.60;;;;;;;;;;5010263;28;20108;-49
2024/03/18 15:07:03;;;;;;;3.10;1.40;;;;;;;;;;4997862;28;20132;-56
2024/03/18 15:10:02;;;;;;;3.33;1.50;;;;;;;;;;4997459;28;20062;-56
2024/03/18 15:12:55;;;;;;;3.90;1.70;;;;;;;;;;4997726;28;20055;-54
2024/03/18 15:15:47;;;;;;;4.68;1.50;;;;;;;;;;5000626;28;20058;-57
2024/03/18 15:18:34;;;;;;;2.22;1.50;;;;;;;;;;4996868;28;20058;-57
2024/03/18 15:21:27;;;;;;;5.38;1.63;;;;;;;;;;4995650;28;20066;-57
2024/03/18 15:24:13;;;;;;;3.80;1.67;;;;;;;;;;4998112;28;20061;-47
2024/03/18 15:29:51;;;;;;;4.22;1.73;;;;;;;;;;5002386;28;20068;-46
2024/03/18 15:32:44;;;;;;;4.38;1.90;;;;;;;;;;4997880;28;20050;-49
2024/03/18 15:35:30;;;;;;;4.18;1.45;;;;;;;;;;4993294;28;20065;-60
2024/03/18 15:38:23;;;;;;;3.20;1.60;;;;;;;;;;4996431;28;20062;-65
2024/03/18 15:41:09;;;;;;;2.50;1.30;;;;;;;;;;4997188;28;20062;-65
2024/03/18 15:44:02;;;;;;;4.22;1.83;;;;;;;;;;4996010;28;20113;-65
2024/03/18 15:46:48;;;;;;;3.70;1.23;;;;;;;;;;4996193;28;20054;-65
